sensor_id;sensor_type;location;lat;lon;timestamp;pressure;altitude;pressure_sealevel;temperature
15709;BMP180;7954;51.914;8.420;2022-08-03T00:00:37;100286.44;;;28.68
15709;BMP180;7954;51.914;8.420;2022-08-03T00:03:06;100283.53;;;28.65
15709;BMP180;7954;51.914;8.420;2022-08-03T00:05:35;100287.25;;;28.58
15709;BMP180;7954;51.914;8.420;2022-08-03T00:08:05;100285.00;;;28.53
15709;BMP180;7954;51.914;8.420;2022-08-03T00:10:34;100282.88;;;28.49
15709;BMP180;7954;51.914;8.420;2022-08-03T00:13:05;100277.88;;;28.42
15709;BMP180;7954;51.914;8.420;2022-08-03T00:15:33;100280.03;;;28.38
15709;BMP180;7954;51.914;8.420;2022-08-03T00:18:01;100279.91;;;28.36
15709;BMP180;7954;51.914;8.420;2022-08-03T00:20:29;100292.63;;;28.33
15709;BMP180;7954;51.914;8.420;2022-08-03T00:22:57;100279.03;;;28.27
15709;BMP180;7954;51.914;8.420;2022-08-03T00:25:25;100272.00;;;28.26
15709;BMP180;7954;51.914;8.420;2022-08-03T00:27:53;100271.59;;;28.22
15709;BMP180;7954;51.914;8.420;2022-08-03T00:30:23;100280.00;;;28.19
15709;BMP180;7954;51.914;8.420;2022-08-03T00:32:56;100281.53;;;28.17
15709;BMP180;7954;51.914;8.420;2022-08-03T00:35:26;100278.19;;;28.10
15709;BMP180;7954;51.914;8.420;2022-08-03T00:38:14;100280.78;;;28.10
15709;BMP180;7954;51.914;8.420;2022-08-03T00:40:42;100267.97;;;28.03
15709;BMP180;7954;51.914;8.420;2022-08-03T00:43:10;100268.31;;;27.97
15709;BMP180;7954;51.914;8.420;2022-08-03T00:45:40;100267.22;;;27.95
15709;BMP180;7954;51.914;8.420;2022-08-03T00:48:10;100274.13;;;27.95
15709;BMP180;7954;51.914;8.420;2022-08-03T00:50:58;100266.94;;;27.92
15709;BMP180;7954;51.914;8.420;2022-08-03T00:53:27;100271.41;;;27.85
15709;BMP180;7954;51.914;8.420;2022-08-03T00:55:55;100269.91;;;27.79
15709;BMP180;7954;51.914;8.420;2022-08-03T00:58:24;100265.97;;;27.74
15709;BMP180;7954;51.914;8.420;2022-08-03T01:00:54;100262.00;;;27.69
15709;BMP180;7954;51.914;8.420;2022-08-03T01:03:22;100266.13;;;27.67
15709;BMP180;7954;51.914;8.420;2022-08-03T01:05:52;100267.50;;;27.63
15709;BMP180;7954;51.914;8.420;2022-08-03T01:08:28;100262.66;;;27.58
15709;BMP180;7954;51.914;8.420;2022-08-03T01:11:05;100257.72;;;27.52
15709;BMP180;7954;51.914;8.420;2022-08-03T01:13:40;100264.31;;;27.49
15709;BMP180;7954;51.914;8.420;2022-08-03T01:16:38;100261.25;;;27.53
15709;BMP180;7954;51.914;8.420;2022-08-03T01:19:20;100247.69;;;27.47
15709;BMP180;7954;51.914;8.420;2022-08-03T01:22:05;100257.91;;;27.45
15709;BMP180;7954;51.914;8.420;2022-08-03T01:24:44;100263.88;;;27.44
15709;BMP180;7954;51.914;8.420;2022-08-03T01:27:18;100253.34;;;27.43
15709;BMP180;7954;51.914;8.420;2022-08-03T01:30:08;100260.25;;;27.34
15709;BMP180;7954;51.914;8.420;2022-08-03T01:32:41;100251.38;;;27.32
15709;BMP180;7954;51.914;8.420;2022-08-03T01:35:28;100258.88;;;27.29
15709;BMP180;7954;51.914;8.420;2022-08-03T01:38:09;100265.13;;;27.23
15709;BMP180;7954;51.914;8.420;2022-08-03T01:40:40;100258.41;;;27.16
15709;BMP180;7954;51.914;8.420;2022-08-03T01:43:15;100259.66;;;27.11
15709;BMP180;7954;51.914;8.420;2022-08-03T01:46:06;100258.59;;;27.09
15709;BMP180;7954;51.914;8.420;2022-08-03T01:48:38;100260.59;;;27.03
15709;BMP180;7954;51.914;8.420;2022-08-03T01:51:10;100261.19;;;27.01
15709;BMP180;7954;51.914;8.420;2022-08-03T01:53:39;100261.44;;;26.95
15709;BMP180;7954;51.914;8.420;2022-08-03T01:56:10;100263.91;;;26.94
15709;BMP180;7954;51.914;8.420;2022-08-03T01:58:40;100258.09;;;26.88
15709;BMP180;7954;51.914;8.420;2022-08-03T02:01:11;100254.59;;;26.87
15709;BMP180;7954;51.914;8.420;2022-08-03T02:03:42;100248.03;;;26.82
15709;BMP180;7954;51.914;8.420;2022-08-03T02:06:28;100256.28;;;26.78
15709;BMP180;7954;51.914;8.420;2022-08-03T02:09:19;100243.78;;;26.74
15709;BMP180;7954;51.914;8.420;2022-08-03T02:11:48;100253.38;;;26.67
15709;BMP180;7954;51.914;8.420;2022-08-03T02:14:18;100254.59;;;26.62
15709;BMP180;7954;51.914;8.420;2022-08-03T02:16:48;100255.97;;;26.59
15709;BMP180;7954;51.914;8.420;2022-08-03T02:19:18;100256.09;;;26.52
15709;BMP180;7954;51.914;8.420;2022-08-03T02:21:47;100253.50;;;26.52
15709;BMP180;7954;51.914;8.420;2022-08-03T02:24:28;100266.16;;;26.49
15709;BMP180;7954;51.914;8.420;2022-08-03T02:26:57;100259.59;;;26.44
15709;BMP180;7954;51.914;8.420;2022-08-03T02:29:28;100262.06;;;26.42
15709;BMP180;7954;51.914;8.420;2022-08-03T02:32:08;100258.66;;;26.43
15709;BMP180;7954;51.914;8.420;2022-08-03T02:34:39;100252.91;;;26.37
15709;BMP180;7954;51.914;8.420;2022-08-03T02:37:09;100255.50;;;26.37
15709;BMP180;7954;51.914;8.420;2022-08-03T02:39:39;100249.94;;;26.34
15709;BMP180;7954;51.914;8.420;2022-08-03T02:42:09;100248.72;;;26.31
15709;BMP180;7954;51.914;8.420;2022-08-03T02:44:39;100251.91;;;26.28
15709;BMP180;7954;51.914;8.420;2022-08-03T02:47:19;100254.69;;;26.30
15709;BMP180;7954;51.914;8.420;2022-08-03T02:49:49;100252.50;;;26.26
15709;BMP180;7954;51.914;8.420;2022-08-03T02:52:19;100250.38;;;26.22
15709;BMP180;7954;51.914;8.420;2022-08-03T02:54:52;100245.78;;;26.19
15709;BMP180;7954;51.914;8.420;2022-08-03T02:57:21;100253.41;;;26.18
15709;BMP180;7954;51.914;8.420;2022-08-03T02:59:50;100252.19;;;26.14
15709;BMP180;7954;51.914;8.420;2022-08-03T03:02:20;100251.13;;;26.12
15709;BMP180;7954;51.914;8.420;2022-08-03T03:04:51;100250.94;;;26.11
15709;BMP180;7954;51.914;8.420;2022-08-03T03:07:39;100258.28;;;26.15
15709;BMP180;7954;51.914;8.420;2022-08-03T03:10:19;100247.44;;;26.10
15709;BMP180;7954;51.914;8.420;2022-08-03T03:12:49;100249.56;;;26.06
15709;BMP180;7954;51.914;8.420;2022-08-03T03:15:19;100252.75;;;26.03
15709;BMP180;7954;51.914;8.420;2022-08-03T03:17:50;100256.88;;;26.01
15709;BMP180;7954;51.914;8.420;2022-08-03T03:20:20;100254.56;;;25.96
15709;BMP180;7954;51.914;8.420;2022-08-03T03:22:57;100253.66;;;25.95
15709;BMP180;7954;51.914;8.420;2022-08-03T03:25:26;100245.41;;;25.91
15709;BMP180;7954;51.914;8.420;2022-08-03T03:27:54;100246.94;;;25.89
15709;BMP180;7954;51.914;8.420;2022-08-03T03:30:23;100246.59;;;25.86
15709;BMP180;7954;51.914;8.420;2022-08-03T03:32:53;100260.31;;;25.85
15709;BMP180;7954;51.914;8.420;2022-08-03T03:35:21;100249.97;;;25.85
15709;BMP180;7954;51.914;8.420;2022-08-03T03:37:50;100257.25;;;25.81
15709;BMP180;7954;51.914;8.420;2022-08-03T03:40:20;100250.22;;;25.80
15709;BMP180;7954;51.914;8.420;2022-08-03T03:42:48;100254.34;;;25.78
15709;BMP180;7954;51.914;8.420;2022-08-03T03:45:16;100253.41;;;25.77
15709;BMP180;7954;51.914;8.420;2022-08-03T03:47:45;100249.00;;;25.76
15709;BMP180;7954;51.914;8.420;2022-08-03T03:50:16;100257.53;;;25.75
15709;BMP180;7954;51.914;8.420;2022-08-03T03:52:45;100248.69;;;25.73
15709;BMP180;7954;51.914;8.420;2022-08-03T03:55:15;100247.59;;;25.71
15709;BMP180;7954;51.914;8.420;2022-08-03T03:57:45;100255.19;;;25.70
15709;BMP180;7954;51.914;8.420;2022-08-03T04:00:14;100249.09;;;25.69
15709;BMP180;7954;51.914;8.420;2022-08-03T04:02:45;100246.38;;;25.68
15709;BMP180;7954;51.914;8.420;2022-08-03T04:05:14;100255.63;;;25.66
15709;BMP180;7954;51.914;8.420;2022-08-03T04:08:02;100258.81;;;25.63
15709;BMP180;7954;51.914;8.420;2022-08-03T04:11:05;100252.88;;;25.64
15709;BMP180;7954;51.914;8.420;2022-08-03T04:13:36;100263.22;;;25.64
15709;BMP180;7954;51.914;8.420;2022-08-03T04:16:06;100255.47;;;25.64
15709;BMP180;7954;51.914;8.420;2022-08-03T04:18:38;100256.06;;;25.62
15709;BMP180;7954;51.914;8.420;2022-08-03T04:21:10;100248.91;;;25.59
15709;BMP180;7954;51.914;8.420;2022-08-03T04:23:42;100251.78;;;25.62
15709;BMP180;7954;51.914;8.420;2022-08-03T04:26:12;100252.53;;;25.61
15709;BMP180;7954;51.914;8.420;2022-08-03T04:28:43;100250.28;;;25.64
15709;BMP180;7954;51.914;8.420;2022-08-03T04:31:12;100256.22;;;25.63
15709;BMP180;7954;51.914;8.420;2022-08-03T04:33:43;100258.06;;;25.64
15709;BMP180;7954;51.914;8.420;2022-08-03T04:36:17;100256.72;;;25.68
15709;BMP180;7954;51.914;8.420;2022-08-03T04:38:54;100260.53;;;25.71
15709;BMP180;7954;51.914;8.420;2022-08-03T04:41:24;100259.94;;;25.74
15709;BMP180;7954;51.914;8.420;2022-08-03T04:43:54;100266.06;;;25.74
15709;BMP180;7954;51.914;8.420;2022-08-03T04:46:25;100267.09;;;25.76
15709;BMP180;7954;51.914;8.420;2022-08-03T04:48:54;100263.63;;;25.76
15709;BMP180;7954;51.914;8.420;2022-08-03T04:51:25;100258.00;;;25.80
15709;BMP180;7954;51.914;8.420;2022-08-03T04:53:53;100266.09;;;25.83
15709;BMP180;7954;51.914;8.420;2022-08-03T04:56:21;100264.56;;;25.85
15709;BMP180;7954;51.914;8.420;2022-08-03T04:58:49;100255.91;;;25.84
15709;BMP180;7954;51.914;8.420;2022-08-03T05:01:18;100266.91;;;25.90
15709;BMP180;7954;51.914;8.420;2022-08-03T05:03:48;100263.41;;;25.98
15709;BMP180;7954;51.914;8.420;2022-08-03T05:06:17;100256.72;;;26.00
15709;BMP180;7954;51.914;8.420;2022-08-03T05:08:53;100262.69;;;26.07
15709;BMP180;7954;51.914;8.420;2022-08-03T05:11:22;100264.22;;;26.14
15709;BMP180;7954;51.914;8.420;2022-08-03T05:13:50;100268.06;;;26.17
15709;BMP180;7954;51.914;8.420;2022-08-03T05:16:19;100264.41;;;26.24
15709;BMP180;7954;51.914;8.420;2022-08-03T05:18:47;100263.19;;;26.29
15709;BMP180;7954;51.914;8.420;2022-08-03T05:21:17;100264.59;;;26.34
15709;BMP180;7954;51.914;8.420;2022-08-03T05:23:45;100266.00;;;26.39
15709;BMP180;7954;51.914;8.420;2022-08-03T05:26:16;100265.09;;;26.47
15709;BMP180;7954;51.914;8.420;2022-08-03T05:28:45;100263.44;;;26.47
15709;BMP180;7954;51.914;8.420;2022-08-03T05:31:17;100275.00;;;26.51
15709;BMP180;7954;51.914;8.420;2022-08-03T05:33:45;100277.16;;;26.55
15709;BMP180;7954;51.914;8.420;2022-08-03T05:36:14;100269.97;;;26.60
15709;BMP180;7954;51.914;8.420;2022-08-03T05:38:42;100271.53;;;26.67
15709;BMP180;7954;51.914;8.420;2022-08-03T05:41:10;100271.06;;;26.71
15709;BMP180;7954;51.914;8.420;2022-08-03T05:43:51;100269.69;;;26.83
15709;BMP180;7954;51.914;8.420;2022-08-03T05:46:19;100262.66;;;26.90
15709;BMP180;7954;51.914;8.420;2022-08-03T05:48:48;100265.72;;;26.95
15709;BMP180;7954;51.914;8.420;2022-08-03T05:51:16;100270.19;;;27.04
15709;BMP180;7954;51.914;8.420;2022-08-03T05:53:44;100263.78;;;27.09
15709;BMP180;7954;51.914;8.420;2022-08-03T05:56:12;100266.66;;;27.21
15709;BMP180;7954;51.914;8.420;2022-08-03T05:58:43;100266.19;;;27.25
15709;BMP180;7954;51.914;8.420;2022-08-03T06:01:13;100265.44;;;27.34
15709;BMP180;7954;51.914;8.420;2022-08-03T06:03:41;100260.81;;;27.40
15709;BMP180;7954;51.914;8.420;2022-08-03T06:06:10;100258.69;;;27.44
15709;BMP180;7954;51.914;8.420;2022-08-03T06:08:38;100260.94;;;27.50
15709;BMP180;7954;51.914;8.420;2022-08-03T06:11:06;100271.16;;;27.57
15709;BMP180;7954;51.914;8.420;2022-08-03T06:13:35;100260.47;;;27.62
15709;BMP180;7954;51.914;8.420;2022-08-03T06:16:04;100263.38;;;27.74
15709;BMP180;7954;51.914;8.420;2022-08-03T06:18:34;100261.34;;;27.80
15709;BMP180;7954;51.914;8.420;2022-08-03T06:21:02;100261.44;;;27.90
15709;BMP180;7954;51.914;8.420;2022-08-03T06:23:40;100254.09;;;27.94
15709;BMP180;7954;51.914;8.420;2022-08-03T06:26:22;100257.28;;;28.00
15709;BMP180;7954;51.914;8.420;2022-08-03T06:28:50;100265.22;;;28.01
15709;BMP180;7954;51.914;8.420;2022-08-03T06:31:21;100258.91;;;28.08
15709;BMP180;7954;51.914;8.420;2022-08-03T06:33:51;100268.06;;;28.13
15709;BMP180;7954;51.914;8.420;2022-08-03T06:36:38;100269.72;;;28.29
15709;BMP180;7954;51.914;8.420;2022-08-03T06:39:07;100262.28;;;28.42
15709;BMP180;7954;51.914;8.420;2022-08-03T06:41:35;100262.38;;;28.52
15709;BMP180;7954;51.914;8.420;2022-08-03T06:44:10;100260.13;;;28.65
15709;BMP180;7954;51.914;8.420;2022-08-03T06:46:38;100266.38;;;28.67
15709;BMP180;7954;51.914;8.420;2022-08-03T06:49:09;100265.13;;;28.72
15709;BMP180;7954;51.914;8.420;2022-08-03T06:51:37;100259.91;;;28.80
15709;BMP180;7954;51.914;8.420;2022-08-03T06:54:26;100263.78;;;28.94
15709;BMP180;7954;51.914;8.420;2022-08-03T06:56:58;100253.69;;;29.07
15709;BMP180;7954;51.914;8.420;2022-08-03T06:59:29;100255.03;;;29.12
15709;BMP180;7954;51.914;8.420;2022-08-03T07:02:17;100255.34;;;29.24
15709;BMP180;7954;51.914;8.420;2022-08-03T07:04:47;100260.38;;;29.31
15709;BMP180;7954;51.914;8.420;2022-08-03T07:07:15;100255.09;;;29.40
15709;BMP180;7954;51.914;8.420;2022-08-03T07:09:45;100251.47;;;29.48
15709;BMP180;7954;51.914;8.420;2022-08-03T07:12:22;100248.91;;;29.58
15709;BMP180;7954;51.914;8.420;2022-08-03T07:14:50;100252.94;;;29.64
15709;BMP180;7954;51.914;8.420;2022-08-03T07:17:25;100260.03;;;29.75
15709;BMP180;7954;51.914;8.420;2022-08-03T07:19:55;100254.94;;;29.77
15709;BMP180;7954;51.914;8.420;2022-08-03T07:22:23;100257.91;;;29.90
15709;BMP180;7954;51.914;8.420;2022-08-03T07:24:51;100262.50;;;30.02
15709;BMP180;7954;51.914;8.420;2022-08-03T07:27:19;100252.22;;;30.13
15709;BMP180;7954;51.914;8.420;2022-08-03T07:29:47;100253.00;;;30.32
15709;BMP180;7954;51.914;8.420;2022-08-03T07:32:16;100254.44;;;30.39
15709;BMP180;7954;51.914;8.420;2022-08-03T07:34:44;100257.72;;;30.46
15709;BMP180;7954;51.914;8.420;2022-08-03T07:37:13;100261.28;;;30.57
15709;BMP180;7954;51.914;8.420;2022-08-03T07:39:41;100245.75;;;30.68
15709;BMP180;7954;51.914;8.420;2022-08-03T07:42:09;100253.44;;;30.76
15709;BMP180;7954;51.914;8.420;2022-08-03T07:44:38;100258.63;;;30.86
15709;BMP180;7954;51.914;8.420;2022-08-03T07:47:06;100253.41;;;30.86
15709;BMP180;7954;51.914;8.420;2022-08-03T07:49:38;100258.78;;;30.98
15709;BMP180;7954;51.914;8.420;2022-08-03T07:52:06;100253.94;;;31.12
15709;BMP180;7954;51.914;8.420;2022-08-03T07:54:55;100254.13;;;31.25
15709;BMP180;7954;51.914;8.420;2022-08-03T07:57:23;100248.88;;;31.35
15709;BMP180;7954;51.914;8.420;2022-08-03T07:59:51;100239.19;;;31.44
15709;BMP180;7954;51.914;8.420;2022-08-03T08:02:28;100249.50;;;31.52
15709;BMP180;7954;51.914;8.420;2022-08-03T08:04:56;100247.16;;;31.55
15709;BMP180;7954;51.914;8.420;2022-08-03T08:07:30;100245.28;;;31.64
15709;BMP180;7954;51.914;8.420;2022-08-03T08:10:00;100239.63;;;31.70
15709;BMP180;7954;51.914;8.420;2022-08-03T08:12:28;100248.19;;;31.79
15709;BMP180;7954;51.914;8.420;2022-08-03T08:14:56;100246.69;;;31.92
15709;BMP180;7954;51.914;8.420;2022-08-03T08:17:24;100237.75;;;32.00
15709;BMP180;7954;51.914;8.420;2022-08-03T08:19:52;100241.13;;;32.09
15709;BMP180;7954;51.914;8.420;2022-08-03T08:22:20;100239.59;;;32.22
15709;BMP180;7954;51.914;8.420;2022-08-03T08:24:56;100244.16;;;32.25
15709;BMP180;7954;51.914;8.420;2022-08-03T08:27:30;100239.44;;;32.42
15709;BMP180;7954;51.914;8.420;2022-08-03T08:30:20;100238.31;;;32.50
15709;BMP180;7954;51.914;8.420;2022-08-03T08:32:49;100243.97;;;32.66
15709;BMP180;7954;51.914;8.420;2022-08-03T08:35:17;100250.34;;;32.69
15709;BMP180;7954;51.914;8.420;2022-08-03T08:37:48;100237.84;;;32.77
15709;BMP180;7954;51.914;8.420;2022-08-03T08:40:19;100247.88;;;32.94
15709;BMP180;7954;51.914;8.420;2022-08-03T08:42:49;100242.91;;;33.08
15709;BMP180;7954;51.914;8.420;2022-08-03T08:45:24;100237.00;;;33.11
15709;BMP180;7954;51.914;8.420;2022-08-03T08:47:54;100241.22;;;33.20
15709;BMP180;7954;51.914;8.420;2022-08-03T08:50:33;100238.81;;;33.34
15709;BMP180;7954;51.914;8.420;2022-08-03T08:53:06;100228.56;;;33.37
15709;BMP180;7954;51.914;8.420;2022-08-03T08:55:36;100236.50;;;33.50
15709;BMP180;7954;51.914;8.420;2022-08-03T08:58:28;100234.00;;;33.52
15709;BMP180;7954;51.914;8.420;2022-08-03T09:00:57;100236.75;;;33.65
15709;BMP180;7954;51.914;8.420;2022-08-03T09:03:25;100231.00;;;33.82
15709;BMP180;7954;51.914;8.420;2022-08-03T09:05:58;100233.81;;;33.96
15709;BMP180;7954;51.914;8.420;2022-08-03T09:08:30;100221.31;;;33.92
15709;BMP180;7954;51.914;8.420;2022-08-03T09:10:59;100217.72;;;34.03
15709;BMP180;7954;51.914;8.420;2022-08-03T09:13:29;100216.34;;;34.08
15709;BMP180;7954;51.914;8.420;2022-08-03T09:16:11;100214.44;;;34.30
15709;BMP180;7954;51.914;8.420;2022-08-03T09:18:45;100209.69;;;34.37
15709;BMP180;7954;51.914;8.420;2022-08-03T09:21:17;100204.03;;;34.56
15709;BMP180;7954;51.914;8.420;2022-08-03T09:24:01;100209.50;;;34.59
15709;BMP180;7954;51.914;8.420;2022-08-03T09:26:33;100208.31;;;34.66
15709;BMP180;7954;51.914;8.420;2022-08-03T09:29:05;100212.72;;;34.55
15709;BMP180;7954;51.914;8.420;2022-08-03T09:31:42;100200.13;;;34.75
15709;BMP180;7954;51.914;8.420;2022-08-03T09:34:18;100208.31;;;34.92
15709;BMP180;7954;51.914;8.420;2022-08-03T09:36:59;100201.31;;;35.04
15709;BMP180;7954;51.914;8.420;2022-08-03T09:39:27;100203.41;;;35.10
15709;BMP180;7954;51.914;8.420;2022-08-03T09:42:09;100201.22;;;35.28
15709;BMP180;7954;51.914;8.420;2022-08-03T09:44:44;100204.53;;;35.39
15709;BMP180;7954;51.914;8.420;2022-08-03T09:47:14;100196.31;;;35.34
15709;BMP180;7954;51.914;8.420;2022-08-03T09:49:56;100191.81;;;35.45
15709;BMP180;7954;51.914;8.420;2022-08-03T09:52:29;100190.00;;;35.57
15709;BMP180;7954;51.914;8.420;2022-08-03T09:55:18;100187.22;;;35.68
15709;BMP180;7954;51.914;8.420;2022-08-03T09:58:09;100194.19;;;35.68
15709;BMP180;7954;51.914;8.420;2022-08-03T10:00:59;100190.56;;;35.66
15709;BMP180;7954;51.914;8.420;2022-08-03T10:03:33;100177.19;;;35.76
15709;BMP180;7954;51.914;8.420;2022-08-03T10:06:23;100182.00;;;35.83
15709;BMP180;7954;51.914;8.420;2022-08-03T10:09:05;100183.19;;;35.88
15709;BMP180;7954;51.914;8.420;2022-08-03T10:11:33;100184.34;;;35.91
15709;BMP180;7954;51.914;8.420;2022-08-03T10:14:08;100184.41;;;36.05
15709;BMP180;7954;51.914;8.420;2022-08-03T10:16:52;100175.63;;;36.19
15709;BMP180;7954;51.914;8.420;2022-08-03T10:19:20;100182.88;;;36.36
15709;BMP180;7954;51.914;8.420;2022-08-03T10:21:52;100184.53;;;36.21
15709;BMP180;7954;51.914;8.420;2022-08-03T10:24:25;100179.63;;;36.27
15709;BMP180;7954;51.914;8.420;2022-08-03T10:27:01;100170.47;;;36.35
15709;BMP180;7954;51.914;8.420;2022-08-03T10:29:36;100183.63;;;36.35
15709;BMP180;7954;51.914;8.420;2022-08-03T10:32:09;100181.91;;;36.21
15709;BMP180;7954;51.914;8.420;2022-08-03T10:34:43;100180.47;;;36.26
15709;BMP180;7954;51.914;8.420;2022-08-03T10:37:12;100169.38;;;36.32
15709;BMP180;7954;51.914;8.420;2022-08-03T10:39:44;100166.75;;;36.32
15709;BMP180;7954;51.914;8.420;2022-08-03T10:42:22;100174.34;;;36.40
15709;BMP180;7954;51.914;8.420;2022-08-03T10:44:57;100163.09;;;36.43
15709;BMP180;7954;51.914;8.420;2022-08-03T10:47:30;100164.72;;;36.55
15709;BMP180;7954;51.914;8.420;2022-08-03T10:50:02;100169.44;;;36.75
15709;BMP180;7954;51.914;8.420;2022-08-03T10:52:32;100149.53;;;36.80
15709;BMP180;7954;51.914;8.420;2022-08-03T10:58:46;100157.66;;;36.68
15709;BMP180;7954;51.914;8.420;2022-08-03T11:01:49;100154.13;;;36.82
15709;BMP180;7954;51.914;8.420;2022-08-03T11:04:27;100148.38;;;36.89
15709;BMP180;7954;51.914;8.420;2022-08-03T11:07:19;100148.72;;;37.10
15709;BMP180;7954;51.914;8.420;2022-08-03T11:09:50;100138.69;;;37.19
15709;BMP180;7954;51.914;8.420;2022-08-03T11:12:22;100141.97;;;37.15
15709;BMP180;7954;51.914;8.420;2022-08-03T11:14:58;100149.94;;;36.86
15709;BMP180;7954;51.914;8.420;2022-08-03T11:17:33;100147.31;;;36.86
15709;BMP180;7954;51.914;8.420;2022-08-03T11:20:48;100155.38;;;36.89
15709;BMP180;7954;51.914;8.420;2022-08-03T11:23:19;100146.91;;;36.94
15709;BMP180;7954;51.914;8.420;2022-08-03T11:26:26;100142.81;;;36.99
15709;BMP180;7954;51.914;8.420;2022-08-03T11:29:27;100143.66;;;36.84
15709;BMP180;7954;51.914;8.420;2022-08-03T11:31:57;100141.19;;;36.87
15709;BMP180;7954;51.914;8.420;2022-08-03T11:34:28;100144.28;;;36.65
15709;BMP180;7954;51.914;8.420;2022-08-03T11:37:20;100138.19;;;36.81
15709;BMP180;7954;51.914;8.420;2022-08-03T11:39:58;100138.53;;;37.01
15709;BMP180;7954;51.914;8.420;2022-08-03T11:42:38;100129.69;;;37.15
15709;BMP180;7954;51.914;8.420;2022-08-03T11:45:07;100136.22;;;37.22
15709;BMP180;7954;51.914;8.420;2022-08-03T11:47:38;100135.22;;;37.20
15709;BMP180;7954;51.914;8.420;2022-08-03T11:50:22;100150.25;;;37.06
15709;BMP180;7954;51.914;8.420;2022-08-03T11:52:54;100150.19;;;37.05
15709;BMP180;7954;51.914;8.420;2022-08-03T11:55:22;100137.66;;;37.01
15709;BMP180;7954;51.914;8.420;2022-08-03T11:57:57;100139.25;;;37.13
15709;BMP180;7954;51.914;8.420;2022-08-03T12:00:45;100133.69;;;37.23
15709;BMP180;7954;51.914;8.420;2022-08-03T12:03:18;100130.13;;;37.37
15709;BMP180;7954;51.914;8.420;2022-08-03T12:05:51;100132.88;;;37.54
15709;BMP180;7954;51.914;8.420;2022-08-03T12:08:33;100141.28;;;37.63
15709;BMP180;7954;51.914;8.420;2022-08-03T12:11:04;100130.56;;;37.60
15709;BMP180;7954;51.914;8.420;2022-08-03T12:13:40;100125.84;;;37.55
15709;BMP180;7954;51.914;8.420;2022-08-03T12:16:29;100123.34;;;37.72
15709;BMP180;7954;51.914;8.420;2022-08-03T12:19:04;100119.22;;;37.77
15709;BMP180;7954;51.914;8.420;2022-08-03T12:21:33;100122.38;;;37.70
15709;BMP180;7954;51.914;8.420;2022-08-03T12:24:05;100127.53;;;37.53
15709;BMP180;7954;51.914;8.420;2022-08-03T12:26:42;100122.28;;;37.24
15709;BMP180;7954;51.914;8.420;2022-08-03T12:29:25;100132.75;;;37.23
15709;BMP180;7954;51.914;8.420;2022-08-03T12:31:55;100123.69;;;37.18
15709;BMP180;7954;51.914;8.420;2022-08-03T12:34:45;100118.50;;;37.33
15709;BMP180;7954;51.914;8.420;2022-08-03T12:37:20;100119.91;;;37.43
15709;BMP180;7954;51.914;8.420;2022-08-03T12:39:52;100123.28;;;37.56
15709;BMP180;7954;51.914;8.420;2022-08-03T12:42:29;100114.63;;;37.59
15709;BMP180;7954;51.914;8.420;2022-08-03T12:44:57;100115.56;;;37.59
15709;BMP180;7954;51.914;8.420;2022-08-03T12:47:25;100121.19;;;37.81
15709;BMP180;7954;51.914;8.420;2022-08-03T12:49:53;100113.56;;;38.17
15709;BMP180;7954;51.914;8.420;2022-08-03T12:52:23;100112.66;;;38.34
15709;BMP180;7954;51.914;8.420;2022-08-03T12:54:55;100107.97;;;38.78
15709;BMP180;7954;51.914;8.420;2022-08-03T12:57:24;100101.56;;;39.08
15709;BMP180;7954;51.914;8.420;2022-08-03T12:59:52;100098.22;;;39.29
15709;BMP180;7954;51.914;8.420;2022-08-03T13:02:23;100102.63;;;39.65
15709;BMP180;7954;51.914;8.420;2022-08-03T13:04:53;100107.63;;;40.15
15709;BMP180;7954;51.914;8.420;2022-08-03T13:07:21;100087.09;;;40.49
15709;BMP180;7954;51.914;8.420;2022-08-03T13:09:51;100083.84;;;40.75
15709;BMP180;7954;51.914;8.420;2022-08-03T13:12:22;100097.88;;;40.72
15709;BMP180;7954;51.914;8.420;2022-08-03T13:14:52;100083.75;;;40.73
15709;BMP180;7954;51.914;8.420;2022-08-03T13:17:20;100090.97;;;40.98
15709;BMP180;7954;51.914;8.420;2022-08-03T13:19:48;100087.50;;;41.42
15709;BMP180;7954;51.914;8.420;2022-08-03T13:22:18;100078.78;;;41.90
15709;BMP180;7954;51.914;8.420;2022-08-03T13:24:49;100078.53;;;42.07
15709;BMP180;7954;51.914;8.420;2022-08-03T13:27:18;100076.91;;;42.34
15709;BMP180;7954;51.914;8.420;2022-08-03T13:30:09;100076.13;;;42.88
15709;BMP180;7954;51.914;8.420;2022-08-03T13:32:38;100080.63;;;42.90
15709;BMP180;7954;51.914;8.420;2022-08-03T13:35:07;100077.75;;;43.37
15709;BMP180;7954;51.914;8.420;2022-08-03T13:37:37;100077.22;;;43.76
15709;BMP180;7954;51.914;8.420;2022-08-03T13:40:06;100067.19;;;43.97
15709;BMP180;7954;51.914;8.420;2022-08-03T13:42:37;100087.19;;;43.82
15709;BMP180;7954;51.914;8.420;2022-08-03T13:45:07;100080.00;;;44.10
15709;BMP180;7954;51.914;8.420;2022-08-03T13:47:36;100075.78;;;44.16
15709;BMP180;7954;51.914;8.420;2022-08-03T13:50:05;100071.41;;;44.52
15709;BMP180;7954;51.914;8.420;2022-08-03T13:52:34;100059.34;;;45.00
15709;BMP180;7954;51.914;8.420;2022-08-03T13:55:04;100059.63;;;45.12
15709;BMP180;7954;51.914;8.420;2022-08-03T13:57:32;100061.91;;;45.32
15709;BMP180;7954;51.914;8.420;2022-08-03T14:00:22;100059.19;;;45.69
15709;BMP180;7954;51.914;8.420;2022-08-03T14:02:55;100072.56;;;46.12
15709;BMP180;7954;51.914;8.420;2022-08-03T14:05:34;100050.69;;;46.32
15709;BMP180;7954;51.914;8.420;2022-08-03T14:08:04;100053.09;;;46.66
15709;BMP180;7954;51.914;8.420;2022-08-03T14:10:37;100060.69;;;46.93
15709;BMP180;7954;51.914;8.420;2022-08-03T14:13:06;100044.41;;;46.79
15709;BMP180;7954;51.914;8.420;2022-08-03T14:15:36;100050.38;;;47.16
15709;BMP180;7954;51.914;8.420;2022-08-03T14:18:10;100041.03;;;47.46
15709;BMP180;7954;51.914;8.420;2022-08-03T14:20:58;100032.78;;;47.99
15709;BMP180;7954;51.914;8.420;2022-08-03T14:23:33;100038.56;;;48.39
15709;BMP180;7954;51.914;8.420;2022-08-03T14:26:02;100032.88;;;48.10
15709;BMP180;7954;51.914;8.420;2022-08-03T14:28:31;100036.34;;;48.01
15709;BMP180;7954;51.914;8.420;2022-08-03T14:31:03;100049.38;;;47.70
15709;BMP180;7954;51.914;8.420;2022-08-03T14:33:40;100052.16;;;47.77
15709;BMP180;7954;51.914;8.420;2022-08-03T14:36:09;100042.47;;;47.90
15709;BMP180;7954;51.914;8.420;2022-08-03T14:38:37;100041.16;;;48.29
15709;BMP180;7954;51.914;8.420;2022-08-03T14:41:05;100041.53;;;48.69
15709;BMP180;7954;51.914;8.420;2022-08-03T14:43:45;100036.47;;;49.08
15709;BMP180;7954;51.914;8.420;2022-08-03T14:46:30;100032.09;;;49.17